MXM3736 OMAA-OMDW
Flight info
| Callsign | MXM3736 |
|---|---|
| Flight time | 0h 23m |
| Altitude | 11000 |
| Route | LORID |
| Aircraft | A124/J-SDE3FGHIM1M2RWXYZ/LB1 |
Departure
| Time | 2026-04-17 22:08 |
|---|---|
| Airport | Zayed International Airport (OMAA) |
Arrival
| Time | 2026-04-17 22:31 |
|---|---|
| Airport | Al Maktoum International Airport (OMDW) |
| Time | Latitude | Longitude | Altitude | Speed | Heading |
|---|---|---|---|---|---|
| 2026-04-17 21:50 | 24.42704 | 54.66770 | 107 ft | 0 kts | 38° |
| 2026-04-17 22:00 | 24.42698 | 54.66765 | 103 ft | 1 kts | 38° |
| 2026-04-17 22:00 | 24.42687 | 54.66756 | 103 ft | 6 kts | 38° |
| 2026-04-17 22:00 | 24.42641 | 54.66708 | 101 ft | 5 kts | 62° |
| 2026-04-17 22:01 | 24.42640 | 54.66674 | 100 ft | 5 kts | 128° |
| 2026-04-17 22:01 | 24.42655 | 54.66654 | 100 ft | 0 kts | 128° |
| 2026-04-17 22:03 | 24.42645 | 54.66667 | 102 ft | 5 kts | 128° |
| 2026-04-17 22:03 | 24.42613 | 54.66714 | 106 ft | 9 kts | 127° |
| 2026-04-17 22:04 | 24.42575 | 54.66769 | 106 ft | 9 kts | 127° |
| 2026-04-17 22:04 | 24.42535 | 54.66828 | 103 ft | 11 kts | 127° |
| 2026-04-17 22:04 | 24.42470 | 54.66901 | 103 ft | 13 kts | 159° |
| 2026-04-17 22:04 | 24.42383 | 54.66885 | 104 ft | 11 kts | 217° |
| 2026-04-17 22:05 | 24.42315 | 54.66826 | 105 ft | 14 kts | 218° |
| 2026-04-17 22:05 | 24.42210 | 54.66734 | 102 ft | 19 kts | 224° |
| 2026-04-17 22:05 | 24.42206 | 54.66666 | 103 ft | 6 kts | 308° |
| 2026-04-17 22:05 | 24.42208 | 54.66663 | 103 ft | 0 kts | 308° |
| 2026-04-17 22:07 | 24.42213 | 54.66656 | 104 ft | 11 kts | 308° |
| 2026-04-17 22:07 | 24.42377 | 54.66426 | 103 ft | 71 kts | 308° |
| 2026-04-17 22:07 | 24.42693 | 54.65980 | 106 ft | 126 kts | 308° |
| 2026-04-17 22:07 | 24.43365 | 54.65033 | 104 ft | 180 kts | 308° |
| 2026-04-17 22:08 | 24.44188 | 54.63871 | 337 ft | 207 kts | 307° |
| 2026-04-17 22:08 | 24.45099 | 54.62593 | 816 ft | 212 kts | 307° |
| 2026-04-17 22:08 | 24.45981 | 54.61356 | 1263 ft | 205 kts | 307° |
| 2026-04-17 22:08 | 24.46872 | 54.60098 | 1706 ft | 207 kts | 308° |
| 2026-04-17 22:09 | 24.47752 | 54.58856 | 2133 ft | 208 kts | 307° |
| 2026-04-17 22:09 | 24.48665 | 54.57566 | 2624 ft | 207 kts | 307° |
| 2026-04-17 22:09 | 24.49552 | 54.56315 | 3063 ft | 210 kts | 307° |
| 2026-04-17 22:09 | 24.50455 | 54.55039 | 3510 ft | 213 kts | 307° |
| 2026-04-17 22:10 | 24.51379 | 54.53734 | 4004 ft | 214 kts | 307° |
| 2026-04-17 22:10 | 24.52312 | 54.52415 | 4346 ft | 223 kts | 307° |
| 2026-04-17 22:10 | 24.53528 | 54.51320 | 4724 ft | 237 kts | 334° |
| 2026-04-17 22:10 | 24.55225 | 54.50922 | 5143 ft | 268 kts | 359° |
| 2026-04-17 22:11 | 24.57135 | 54.51406 | 5750 ft | 291 kts | 14° |
| 2026-04-17 22:11 | 24.59076 | 54.52179 | 6405 ft | 300 kts | 17° |
| 2026-04-17 22:11 | 24.61055 | 54.52981 | 7030 ft | 301 kts | 15° |
| 2026-04-17 22:11 | 24.63056 | 54.53733 | 7637 ft | 304 kts | 14° |
| 2026-04-17 22:12 | 24.65070 | 54.54475 | 8257 ft | 307 kts | 15° |
| 2026-04-17 22:12 | 24.67063 | 54.55226 | 8878 ft | 309 kts | 15° |
| 2026-04-17 22:12 | 24.69084 | 54.55998 | 9508 ft | 314 kts | 15° |
| 2026-04-17 22:12 | 24.70949 | 54.56702 | 10146 ft | 331 kts | 15° |
| 2026-04-17 22:13 | 24.73169 | 54.57537 | 10697 ft | 358 kts | 16° |
| 2026-04-17 22:13 | 24.75584 | 54.58452 | 10913 ft | 370 kts | 16° |
| 2026-04-17 22:13 | 24.77903 | 54.59337 | 10944 ft | 374 kts | 16° |
| 2026-04-17 22:13 | 24.80075 | 54.60163 | 10969 ft | 373 kts | 16° |
| 2026-04-17 22:14 | 24.82536 | 54.61094 | 11002 ft | 374 kts | 16° |
| 2026-04-17 22:14 | 24.84823 | 54.61960 | 11008 ft | 374 kts | 16° |
| 2026-04-17 22:14 | 24.87284 | 54.62894 | 11004 ft | 374 kts | 16° |
| 2026-04-17 22:14 | 24.89695 | 54.63810 | 11005 ft | 375 kts | 16° |
| 2026-04-17 22:15 | 24.92121 | 54.64886 | 11005 ft | 377 kts | 27° |
| 2026-04-17 22:15 | 24.94144 | 54.66616 | 10997 ft | 360 kts | 44° |
| 2026-04-17 22:15 | 24.95631 | 54.68628 | 10976 ft | 339 kts | 51° |
| 2026-04-17 22:15 | 24.96676 | 54.70868 | 10982 ft | 321 kts | 72° |
| 2026-04-17 22:16 | 24.96976 | 54.73257 | 10812 ft | 319 kts | 92° |
| 2026-04-17 22:16 | 24.96730 | 54.75769 | 10457 ft | 334 kts | 96° |
| 2026-04-17 22:16 | 24.96443 | 54.78308 | 10121 ft | 336 kts | 96° |
| 2026-04-17 22:16 | 24.96278 | 54.79780 | 9922 ft | 336 kts | 96° |
| 2026-04-17 22:17 | 24.96033 | 54.82064 | 9601 ft | 335 kts | 95° |
| 2026-04-17 22:17 | 24.95746 | 54.84770 | 9203 ft | 333 kts | 96° |
| 2026-04-17 22:17 | 24.95442 | 54.87245 | 8835 ft | 332 kts | 103° |
| 2026-04-17 22:17 | 24.94568 | 54.89569 | 8510 ft | 331 kts | 120° |
| 2026-04-17 22:18 | 24.93763 | 54.91068 | 8257 ft | 330 kts | 122° |
| 2026-04-17 22:18 | 24.92407 | 54.93398 | 7860 ft | 328 kts | 123° |
| 2026-04-17 22:18 | 24.91216 | 54.95519 | 7512 ft | 320 kts | 121° |
| 2026-04-17 22:18 | 24.90103 | 54.97588 | 7256 ft | 308 kts | 121° |
| 2026-04-17 22:19 | 24.89014 | 54.99594 | 6984 ft | 298 kts | 122° |
| 2026-04-17 22:19 | 24.87962 | 55.01496 | 6719 ft | 290 kts | 122° |
| 2026-04-17 22:19 | 24.86926 | 55.03371 | 6462 ft | 281 kts | 122° |
| 2026-04-17 22:19 | 24.85952 | 55.05143 | 6182 ft | 261 kts | 122° |
| 2026-04-17 22:20 | 24.85044 | 55.06796 | 5901 ft | 242 kts | 122° |
| 2026-04-17 22:20 | 24.84198 | 55.08332 | 5617 ft | 234 kts | 122° |
| 2026-04-17 22:20 | 24.83375 | 55.09823 | 5362 ft | 231 kts | 122° |
| 2026-04-17 22:20 | 24.82533 | 55.11351 | 5098 ft | 230 kts | 122° |
| 2026-04-17 22:21 | 24.81974 | 55.12366 | 4928 ft | 230 kts | 122° |
| 2026-04-17 22:21 | 24.81124 | 55.13907 | 4681 ft | 229 kts | 122° |
| 2026-04-17 22:21 | 24.80292 | 55.15404 | 4422 ft | 229 kts | 122° |
| 2026-04-17 22:21 | 24.79462 | 55.16895 | 4172 ft | 228 kts | 122° |
| 2026-04-17 22:22 | 24.78641 | 55.18371 | 3920 ft | 226 kts | 122° |
| 2026-04-17 22:22 | 24.77822 | 55.19844 | 3684 ft | 225 kts | 122° |
| 2026-04-17 22:22 | 24.77007 | 55.21308 | 3437 ft | 223 kts | 122° |
| 2026-04-17 22:22 | 24.76211 | 55.22741 | 3205 ft | 222 kts | 122° |
| 2026-04-17 22:23 | 24.75414 | 55.24178 | 2979 ft | 220 kts | 122° |
| 2026-04-17 22:23 | 24.74611 | 55.25621 | 2990 ft | 220 kts | 122° |
| 2026-04-17 22:23 | 24.73815 | 55.27058 | 2990 ft | 221 kts | 122° |
| 2026-04-17 22:23 | 24.73017 | 55.28496 | 2980 ft | 221 kts | 122° |
| 2026-04-17 22:24 | 24.72215 | 55.29938 | 2985 ft | 221 kts | 122° |
| 2026-04-17 22:24 | 24.71569 | 55.31454 | 2949 ft | 221 kts | 96° |
| 2026-04-17 22:24 | 24.71773 | 55.33106 | 2985 ft | 216 kts | 59° |
| 2026-04-17 22:24 | 24.72740 | 55.34274 | 2997 ft | 205 kts | 28° |
| 2026-04-17 22:25 | 24.73900 | 55.35211 | 2991 ft | 206 kts | 32° |
| 2026-04-17 22:25 | 24.75057 | 55.36083 | 2972 ft | 203 kts | 16° |
| 2026-04-17 22:25 | 24.76398 | 55.36178 | 2990 ft | 193 kts | 340° |
| 2026-04-17 22:25 | 24.77641 | 55.35669 | 2985 ft | 190 kts | 331° |
| 2026-04-17 22:26 | 24.78777 | 55.34957 | 2984 ft | 188 kts | 325° |
| 2026-04-17 22:26 | 24.79748 | 55.34051 | 2965 ft | 174 kts | 300° |
| 2026-04-17 22:26 | 24.80344 | 55.32931 | 2996 ft | 167 kts | 301° |
| 2026-04-17 22:26 | 24.80954 | 55.31857 | 2979 ft | 166 kts | 301° |
| 2026-04-17 22:27 | 24.81550 | 55.30790 | 2749 ft | 159 kts | 300° |
| 2026-04-17 22:27 | 24.82069 | 55.29849 | 2575 ft | 155 kts | 300° |
| 2026-04-17 22:27 | 24.82627 | 55.28835 | 2416 ft | 154 kts | 300° |
| 2026-04-17 22:27 | 24.83182 | 55.27826 | 2231 ft | 154 kts | 300° |
| 2026-04-17 22:28 | 24.83745 | 55.26815 | 2037 ft | 155 kts | 300° |
| 2026-04-17 22:28 | 24.84301 | 55.25808 | 1826 ft | 154 kts | 299° |
| 2026-04-17 22:28 | 24.84860 | 55.24794 | 1626 ft | 154 kts | 299° |
| 2026-04-17 22:28 | 24.85420 | 55.23776 | 1421 ft | 156 kts | 299° |
| 2026-04-17 22:29 | 24.85988 | 55.22758 | 1205 ft | 156 kts | 300° |
| 2026-04-17 22:29 | 24.86556 | 55.21730 | 1006 ft | 159 kts | 299° |
| 2026-04-17 22:29 | 24.87131 | 55.20683 | 773 ft | 160 kts | 300° |
| 2026-04-17 22:29 | 24.87572 | 55.19887 | 629 ft | 160 kts | 300° |
| 2026-04-17 22:30 | 24.88161 | 55.18801 | 365 ft | 161 kts | 300° |
| 2026-04-17 22:30 | 24.88714 | 55.17817 | 171 ft | 158 kts | 301° |
| 2026-04-17 22:30 | 24.89222 | 55.16901 | 168 ft | 129 kts | 301° |
| 2026-04-17 22:31 | 24.89597 | 55.16231 | 169 ft | 79 kts | 302° |
| 2026-04-17 22:31 | 24.89837 | 55.15790 | 167 ft | 61 kts | 300° |
| 2026-04-17 22:31 | 24.89989 | 55.15433 | 168 ft | 41 kts | 274° |
| 2026-04-17 22:31 | 24.89994 | 55.15252 | 170 ft | 15 kts | 271° |
| 2026-04-17 22:32 | 24.89995 | 55.15192 | 170 ft | 0 kts | 270° |
| 2026-04-17 22:33 | 24.89995 | 55.15146 | 169 ft | 19 kts | 270° |
| 2026-04-17 22:33 | 24.89943 | 55.15016 | 170 ft | 20 kts | 205° |
| 2026-04-17 22:33 | 24.89810 | 55.14932 | 170 ft | 24 kts | 211° |
| 2026-04-17 22:34 | 24.89659 | 55.14833 | 170 ft | 28 kts | 211° |
| 2026-04-17 22:34 | 24.89496 | 55.14726 | 171 ft | 21 kts | 211° |
| 2026-04-17 22:34 | 24.89416 | 55.14673 | 171 ft | 13 kts | 211° |
| 2026-04-17 22:34 | 24.89351 | 55.14630 | 171 ft | 12 kts | 210° |
| 2026-04-17 22:35 | 24.89318 | 55.14627 | 172 ft | 2 kts | 148° |
| 2026-04-17 22:35 | 24.89306 | 55.14650 | 172 ft | 5 kts | 118° |
| 2026-04-17 22:35 | 24.89288 | 55.14687 | 172 ft | 6 kts | 118° |
| 2026-04-17 22:35 | 24.89276 | 55.14710 | 172 ft | 0 kts | 119° |